createdAt,value
2019-04-14T00:00:01.405Z,20.03
2019-04-14T00:02:40.336Z,20.20
2019-04-14T00:05:13.290Z,19.47
2019-04-14T00:10:22.461Z,20.80
2019-04-14T00:12:51.521Z,20.60
2019-04-14T00:15:29.461Z,19.57
2019-04-14T00:17:52.553Z,20.70
2019-04-14T00:20:22.849Z,19.33
2019-04-14T00:22:53.205Z,20.00
2019-04-14T00:25:23.729Z,20.10
2019-04-14T00:27:54.257Z,18.83
2019-04-14T00:30:25.168Z,19.73
2019-04-14T00:32:57.588Z,20.03
2019-04-14T00:35:47.189Z,20.00
2019-04-14T00:38:23.885Z,20.40
2019-04-14T00:41:07.693Z,19.90
2019-04-14T00:43:48.671Z,20.40
2019-04-14T00:46:27.546Z,19.63
2019-04-14T00:49:00.608Z,20.37
2019-04-14T00:51:30.871Z,19.07
2019-04-14T00:54:00.273Z,19.70
2019-04-14T00:56:30.093Z,18.70
2019-04-14T00:59:00.395Z,18.40
2019-04-14T01:01:30.834Z,19.20
2019-04-14T01:04:01.175Z,18.27
2019-04-14T01:06:31.456Z,18.40
2019-04-14T01:09:02.047Z,18.30
2019-04-14T01:11:33.465Z,17.13
2019-04-14T01:14:03.704Z,17.37
2019-04-14T01:16:34.079Z,17.20
2019-04-14T01:19:04.692Z,17.83
2019-04-14T01:21:34.850Z,18.53
2019-04-14T01:24:05.240Z,16.90
2019-04-14T01:26:35.653Z,18.40
2019-04-14T01:29:05.833Z,18.13
2019-04-14T01:31:36.016Z,17.67
2019-04-14T01:34:06.354Z,17.67
2019-04-14T01:36:36.589Z,16.80
2019-04-14T01:39:07.088Z,17.97
2019-04-14T01:41:36.787Z,17.67
2019-04-14T01:44:06.852Z,19.40
2019-04-14T01:46:37.329Z,19.63
2019-04-14T01:49:07.214Z,17.23
2019-04-14T01:52:05.693Z,18.87
2019-04-14T01:54:53.791Z,18.40
2019-04-14T01:57:42.292Z,18.17
2019-04-14T02:00:38.760Z,18.10
2019-04-14T02:03:08.477Z,18.80
2019-04-14T02:05:38.558Z,17.80
2019-04-14T02:08:09.130Z,18.63
2019-04-14T02:10:39.278Z,20.67
2019-04-14T02:13:09.292Z,22.53
2019-04-14T02:15:39.583Z,20.70
2019-04-14T02:18:09.898Z,23.17
2019-04-14T02:20:40.369Z,21.80
2019-04-14T02:23:10.371Z,22.90
2019-04-14T02:25:40.687Z,22.77
2019-04-14T02:28:11.148Z,22.47
2019-04-14T02:30:51.262Z,21.43
2019-04-14T02:33:38.954Z,22.53
2019-04-14T02:36:14.236Z,21.87
2019-04-14T02:41:29.972Z,21.43
2019-04-14T02:43:51.986Z,21.23
2019-04-14T02:46:09.963Z,20.10
2019-04-14T02:53:54.357Z,21.70
2019-04-14T02:58:53.810Z,20.30
2019-04-14T03:06:20.425Z,20.63
2019-04-14T03:09:01.227Z,19.70
2019-04-14T03:11:25.780Z,19.47
2019-04-14T03:13:53.979Z,20.40
2019-04-14T03:16:35.595Z,20.07
2019-04-14T03:19:06.233Z,19.40
2019-04-14T03:22:04.776Z,19.03
2019-04-14T03:24:49.126Z,20.43
2019-04-14T03:27:50.216Z,18.53
2019-04-14T03:30:51.732Z,20.40
2019-04-14T03:35:51.444Z,21.30
2019-04-14T03:40:27.347Z,21.50
2019-04-14T03:43:02.632Z,21.27
2019-04-14T03:45:36.276Z,21.50
2019-04-14T03:48:31.713Z,22.70
2019-04-14T03:50:31.448Z,22.87
2019-04-14T03:53:05.941Z,22.80
2019-04-14T03:55:20.240Z,21.60
2019-04-14T03:57:37.540Z,23.10
2019-04-14T04:00:07.512Z,23.90
2019-04-14T04:02:37.935Z,23.13
2019-04-14T04:05:08.446Z,23.87
2019-04-14T04:07:38.829Z,24.00
2019-04-14T04:10:13.706Z,23.97
2019-04-14T04:12:44.267Z,24.00
2019-04-14T04:15:14.896Z,24.97
2019-04-14T04:17:58.771Z,25.00
2019-04-14T04:20:50.162Z,24.43
2019-04-14T04:23:42.372Z,24.10
2019-04-14T04:26:36.651Z,24.57
2019-04-14T04:29:18.404Z,23.77
2019-04-14T04:32:22.985Z,24.73
2019-04-14T04:35:11.351Z,25.80
2019-04-14T04:37:50.075Z,24.60
2019-04-14T04:40:24.699Z,23.70
2019-04-14T04:42:54.816Z,25.57
2019-04-14T04:45:24.248Z,24.53
2019-04-14T04:47:53.518Z,24.13
2019-04-14T04:50:23.889Z,24.00
2019-04-14T04:52:53.986Z,25.17
2019-04-14T04:55:24.189Z,25.23
2019-04-14T04:57:54.351Z,25.20
2019-04-14T05:00:24.430Z,24.23
2019-04-14T05:02:54.730Z,26.50
2019-04-14T05:06:00.451Z,23.80
2019-04-14T05:08:30.460Z,25.60
2019-04-14T05:11:07.507Z,26.40
2019-04-14T05:13:40.297Z,25.53
2019-04-14T05:16:10.680Z,25.17
2019-04-14T05:18:39.976Z,26.23
2019-04-14T05:21:10.266Z,24.50
2019-04-14T05:23:40.920Z,26.40
2019-04-14T05:26:11.316Z,24.93
2019-04-14T05:28:41.639Z,29.90
2019-04-14T05:31:12.058Z,26.67
2019-04-14T05:33:42.496Z,26.67
2019-04-14T05:36:12.852Z,25.07
2019-04-14T05:38:42.832Z,25.03
2019-04-14T05:41:12.104Z,25.97
2019-04-14T05:43:48.781Z,23.77
2019-04-14T05:46:12.429Z,24.20
2019-04-14T05:48:42.500Z,25.50
2019-04-14T05:51:12.972Z,25.50
2019-04-14T05:53:43.666Z,25.90
2019-04-14T05:56:14.263Z,25.20
2019-04-14T05:58:44.753Z,24.40
2019-04-14T06:01:14.404Z,27.40
2019-04-14T06:03:43.595Z,25.70
2019-04-14T06:06:12.829Z,26.60
2019-04-14T06:08:42.065Z,26.60
2019-04-14T06:11:11.317Z,26.30
2019-04-14T06:13:40.490Z,27.10
2019-04-14T06:16:09.731Z,27.80
2019-04-14T06:18:38.896Z,25.10
2019-04-14T06:21:08.170Z,25.77
2019-04-14T06:23:37.327Z,26.87
2019-04-14T06:26:06.629Z,25.00
2019-04-14T06:28:35.782Z,24.97
2019-04-14T06:31:23.539Z,23.43
2019-04-14T06:34:20.840Z,24.27
2019-04-14T06:37:17.980Z,27.53
2019-04-14T06:39:49.574Z,25.33
2019-04-14T06:42:18.799Z,26.40
2019-04-14T06:44:48.000Z,24.90
2019-04-14T06:47:17.259Z,25.37
2019-04-14T06:49:49.207Z,26.00
2019-04-14T06:52:17.407Z,24.67
2019-04-14T06:54:46.572Z,25.90
2019-04-14T06:57:15.796Z,26.90
2019-04-14T06:59:45.071Z,26.37
2019-04-14T07:02:14.288Z,24.57
2019-04-14T07:04:43.520Z,24.53
2019-04-14T07:07:12.694Z,25.43
2019-04-14T07:09:41.988Z,25.47
2019-04-14T07:12:11.266Z,23.83
2019-04-14T07:14:40.517Z,24.80
2019-04-14T07:17:09.768Z,25.30
2019-04-14T07:19:39.062Z,25.87
2019-04-14T07:22:08.232Z,23.70
2019-04-14T07:24:37.516Z,25.77
2019-04-14T07:27:06.885Z,24.80
2019-04-14T07:29:42.416Z,25.43
2019-04-14T07:32:32.356Z,24.50
2019-04-14T07:35:19.226Z,24.20
2019-04-14T07:37:58.734Z,25.03
2019-04-14T07:40:34.664Z,23.97
2019-04-14T07:43:39.790Z,26.00
2019-04-14T07:46:30.806Z,24.00
2019-04-14T07:49:06.141Z,25.27
2019-04-14T07:51:46.607Z,26.40
2019-04-14T07:54:37.591Z,24.80
2019-04-14T07:57:34.899Z,25.53
2019-04-14T08:00:14.140Z,24.83
2019-04-14T08:03:14.683Z,25.90
2019-04-14T08:06:03.025Z,24.20
2019-04-14T08:08:32.338Z,25.27
2019-04-14T08:11:01.600Z,24.77
2019-04-14T08:13:30.836Z,24.20
2019-04-14T08:16:00.030Z,24.83
2019-04-14T08:18:29.268Z,26.10
2019-04-14T08:20:58.620Z,25.40
2019-04-14T08:23:27.807Z,24.20
2019-04-14T08:25:56.961Z,25.40
2019-04-14T08:28:26.201Z,26.43
2019-04-14T08:30:55.521Z,24.13
2019-04-14T08:33:24.766Z,24.10
2019-04-14T08:35:54.060Z,25.40
2019-04-14T08:38:23.230Z,26.80
2019-04-14T08:40:52.454Z,28.77
2019-04-14T08:43:28.289Z,25.90
2019-04-14T08:46:09.036Z,24.50
2019-04-14T08:48:54.826Z,26.77
2019-04-14T08:51:32.623Z,24.40
2019-04-14T08:54:25.820Z,24.43
2019-04-14T08:57:26.239Z,24.13
2019-04-14T09:00:05.827Z,24.27
2019-04-14T09:02:58.585Z,26.13
2019-04-14T09:05:59.084Z,23.90
2019-04-14T09:08:32.468Z,25.77
2019-04-14T09:11:03.604Z,23.50
2019-04-14T09:13:32.843Z,20.00
2019-04-14T09:16:03.264Z,24.80
2019-04-14T09:18:32.476Z,26.10
2019-04-14T09:21:01.723Z,24.53
2019-04-14T09:23:30.934Z,26.13
2019-04-14T09:26:00.129Z,25.43
2019-04-14T09:28:29.291Z,26.33
2019-04-14T09:30:58.553Z,24.67
2019-04-14T09:33:27.710Z,24.60
2019-04-14T09:35:56.980Z,23.87
2019-04-14T09:38:26.155Z,24.13
2019-04-14T09:40:55.409Z,24.50
2019-04-14T09:43:26.167Z,23.40
2019-04-14T09:45:56.459Z,23.63
2019-04-14T09:48:25.732Z,23.80
2019-04-14T09:51:04.234Z,24.17
2019-04-14T09:53:26.048Z,24.90
2019-04-14T09:55:55.345Z,23.57
2019-04-14T09:58:24.588Z,24.07
2019-04-14T10:00:53.852Z,24.33
2019-04-14T10:03:23.142Z,22.77
2019-04-14T10:05:52.434Z,23.77
2019-04-14T10:08:21.724Z,28.13
2019-04-14T10:10:51.185Z,24.60
2019-04-14T10:13:20.549Z,24.43
2019-04-14T10:15:49.744Z,23.17
2019-04-14T10:18:19.016Z,22.87
2019-04-14T10:20:48.189Z,23.00
2019-04-14T10:23:17.405Z,23.73
2019-04-14T10:25:46.583Z,23.10
2019-04-14T10:28:15.868Z,22.90
2019-04-14T10:30:45.130Z,23.77
2019-04-14T10:33:14.414Z,23.27
2019-04-14T10:35:43.694Z,22.47
2019-04-14T10:38:13.080Z,25.67
2019-04-14T10:40:42.361Z,24.00
2019-04-14T10:43:11.552Z,26.23
2019-04-14T10:45:40.796Z,23.90
2019-04-14T10:48:09.969Z,23.87
2019-04-14T10:50:39.291Z,25.23
2019-04-14T10:53:08.595Z,22.63
2019-04-14T10:55:39.252Z,24.80
2019-04-14T10:58:08.514Z,24.23
2019-04-14T11:00:37.867Z,24.00
2019-04-14T11:03:07.190Z,23.93
2019-04-14T11:05:58.244Z,24.70
2019-04-14T11:08:27.507Z,26.83
2019-04-14T11:10:56.787Z,23.60
2019-04-14T11:13:26.053Z,23.03
2019-04-14T11:15:55.232Z,23.77
2019-04-14T11:18:24.731Z,24.43
2019-04-14T11:20:54.014Z,23.93
2019-04-14T11:23:23.288Z,24.03
2019-04-14T11:25:52.498Z,24.20
2019-04-14T11:28:21.670Z,24.77
2019-04-14T11:30:51.255Z,24.07
2019-04-14T11:33:27.036Z,23.20
2019-04-14T11:36:01.036Z,24.30
2019-04-14T11:38:44.103Z,23.00
2019-04-14T11:41:17.017Z,23.23
2019-04-14T11:43:46.386Z,23.40
2019-04-14T11:46:15.702Z,23.80
2019-04-14T11:48:45.288Z,21.70
2019-04-14T11:51:14.530Z,23.13
2019-04-14T11:53:43.819Z,24.00
2019-04-14T11:56:13.374Z,24.53
2019-04-14T11:58:42.689Z,25.13
2019-04-14T12:01:29.888Z,25.20
2019-04-14T12:04:09.502Z,25.33
2019-04-14T12:07:07.054Z,24.50
2019-04-14T12:09:40.301Z,22.97
2019-04-14T12:12:10.532Z,24.30
2019-04-14T12:14:39.826Z,23.07
2019-04-14T12:17:09.099Z,24.20
2019-04-14T12:19:38.391Z,24.63
2019-04-14T12:22:08.755Z,23.60
2019-04-14T12:24:38.209Z,24.53
2019-04-14T12:27:09.351Z,24.67
2019-04-14T12:29:39.020Z,24.50
2019-04-14T12:32:08.998Z,24.33
2019-04-14T12:34:38.259Z,25.87
2019-04-14T12:37:07.718Z,24.40
2019-04-14T12:39:36.885Z,25.40
2019-04-14T12:42:27.164Z,24.93
2019-04-14T12:45:18.240Z,24.87
2019-04-14T12:47:59.325Z,23.90
2019-04-14T12:50:35.321Z,23.47
2019-04-14T12:53:04.710Z,24.00
2019-04-14T12:55:33.977Z,23.33
2019-04-14T12:58:04.551Z,22.10
2019-04-14T13:00:40.883Z,23.43
2019-04-14T13:03:10.130Z,21.73
2019-04-14T13:05:39.409Z,24.30
2019-04-14T13:08:10.524Z,23.03
2019-04-14T13:10:39.876Z,24.37
2019-04-14T13:13:09.200Z,21.77
2019-04-14T13:15:38.433Z,22.30
2019-04-14T13:18:07.595Z,23.83
2019-04-14T13:20:36.962Z,21.77
2019-04-14T13:23:07.847Z,22.60
2019-04-14T13:25:37.138Z,21.07
2019-04-14T13:28:06.400Z,20.17
2019-04-14T13:30:38.532Z,19.53
2019-04-14T13:33:07.814Z,20.33
2019-04-14T13:35:37.049Z,18.17
2019-04-14T13:38:06.600Z,21.10
2019-04-14T13:40:35.867Z,17.23
2019-04-14T13:43:05.111Z,17.43
2019-04-14T13:45:34.564Z,16.40
2019-04-14T13:48:05.284Z,15.90
2019-04-14T13:50:34.666Z,14.53
2019-04-14T13:53:04.328Z,15.40
2019-04-14T13:55:33.635Z,14.83
2019-04-14T13:58:03.043Z,16.00
2019-04-14T14:00:32.349Z,14.20
2019-04-14T14:03:01.701Z,13.87
2019-04-14T14:05:31.122Z,14.30
2019-04-14T14:08:01.098Z,12.97
2019-04-14T14:10:31.554Z,12.90
2019-04-14T14:13:17.326Z,13.07
2019-04-14T14:16:04.321Z,13.90
2019-04-14T14:18:44.452Z,13.77
2019-04-14T14:21:44.876Z,13.60
2019-04-14T14:24:51.558Z,13.63
2019-04-14T14:27:20.831Z,14.37
2019-04-14T14:29:50.449Z,13.83
2019-04-14T14:32:31.949Z,13.27
2019-04-14T14:35:01.328Z,15.57
2019-04-14T14:37:30.652Z,15.63
2019-04-14T14:39:59.919Z,14.43
2019-04-14T14:42:29.103Z,13.93
2019-04-14T14:45:23.289Z,15.93
2019-04-14T14:48:10.598Z,14.50
2019-04-14T14:50:48.555Z,13.03
2019-04-14T14:53:17.845Z,15.10
2019-04-14T14:55:47.063Z,14.50
2019-04-14T14:58:16.324Z,13.77
2019-04-14T15:00:45.603Z,13.60
2019-04-14T15:03:15.054Z,12.87
2019-04-14T15:05:44.373Z,13.50
2019-04-14T15:08:13.680Z,14.63
2019-04-14T15:10:43.129Z,15.93
2019-04-14T15:13:12.392Z,12.67
2019-04-14T15:15:41.827Z,13.50
2019-04-14T15:18:11.134Z,14.53
2019-04-14T15:20:40.793Z,13.60
2019-04-14T15:23:10.298Z,13.80
2019-04-14T15:25:39.585Z,14.20
2019-04-14T15:28:08.858Z,14.10
2019-04-14T15:30:38.315Z,14.50
2019-04-14T15:33:07.639Z,13.23
2019-04-14T15:35:38.337Z,13.43
2019-04-14T15:38:07.617Z,13.27
2019-04-14T15:40:36.797Z,13.60
2019-04-14T15:43:06.215Z,13.47
2019-04-14T15:45:35.568Z,13.07
2019-04-14T15:48:04.912Z,13.47
2019-04-14T15:50:34.203Z,12.03
2019-04-14T15:53:03.476Z,12.80
2019-04-14T15:55:32.772Z,12.23
2019-04-14T15:58:18.015Z,12.17
2019-04-14T16:01:03.015Z,12.63
2019-04-14T16:03:49.405Z,11.80
2019-04-14T16:06:43.579Z,11.73
2019-04-14T16:09:40.065Z,11.67
2019-04-14T16:12:25.175Z,11.97
2019-04-14T16:15:02.075Z,11.07
2019-04-14T16:18:08.573Z,11.40
2019-04-14T16:20:39.789Z,10.70
2019-04-14T16:23:08.994Z,10.40
2019-04-14T16:25:44.263Z,9.33
2019-04-14T16:28:18.963Z,10.07
2019-04-14T16:31:10.518Z,10.73
2019-04-14T16:33:57.692Z,9.70
2019-04-14T16:36:26.990Z,9.70
2019-04-14T16:38:56.240Z,9.17
2019-04-14T16:41:25.459Z,10.10
2019-04-14T16:43:54.725Z,9.50
2019-04-14T16:46:24.074Z,9.83
2019-04-14T16:48:53.285Z,9.60
2019-04-14T16:51:27.744Z,9.70
2019-04-14T16:54:03.353Z,10.27
2019-04-14T16:56:55.014Z,9.60
2019-04-14T16:59:24.277Z,9.53
2019-04-14T17:01:53.588Z,10.27
2019-04-14T17:04:22.860Z,9.67
2019-04-14T17:06:52.151Z,10.50
2019-04-14T17:09:21.465Z,9.90
2019-04-14T17:11:51.933Z,10.40
2019-04-14T17:14:30.189Z,10.60
2019-04-14T17:17:24.177Z,10.33
2019-04-14T17:20:15.452Z,9.90
2019-04-14T17:22:55.589Z,10.67
2019-04-14T17:25:32.764Z,10.97
2019-04-14T17:28:27.028Z,10.77
2019-04-14T17:31:15.273Z,11.20
2019-04-14T17:33:59.533Z,10.33
2019-04-14T17:36:50.865Z,10.43
2019-04-14T17:39:40.836Z,10.33
2019-04-14T17:42:26.328Z,10.23
2019-04-14T17:45:08.366Z,11.30
2019-04-14T17:47:56.664Z,10.90
2019-04-14T17:50:44.577Z,11.30
2019-04-14T17:53:32.804Z,18.70
2019-04-14T17:56:22.066Z,11.20
2019-04-14T17:58:57.490Z,10.10
2019-04-14T18:01:44.366Z,10.57
2019-04-14T18:04:22.946Z,10.47
2019-04-14T18:07:20.435Z,10.57
2019-04-14T18:10:23.920Z,10.63
2019-04-14T18:12:59.527Z,11.67
2019-04-14T18:15:47.718Z,12.47
2019-04-14T18:18:29.954Z,11.07
2019-04-14T18:21:02.761Z,11.47
2019-04-14T18:23:32.106Z,11.60
2019-04-14T18:26:01.361Z,11.73
2019-04-14T18:28:48.408Z,10.63
2019-04-14T18:31:34.964Z,10.43
2019-04-14T18:34:16.135Z,11.23
2019-04-14T18:36:51.470Z,14.70
2019-04-14T18:39:39.734Z,12.47
2019-04-14T18:42:19.372Z,11.60
2019-04-14T18:45:08.608Z,10.60
2019-04-14T18:48:09.048Z,11.73
2019-04-14T18:50:55.892Z,11.57
2019-04-14T18:53:39.241Z,12.98
2019-04-14T18:56:25.892Z,12.27
2019-04-14T18:59:13.530Z,11.00
2019-04-14T19:01:44.981Z,11.33
2019-04-14T19:04:14.392Z,11.57
2019-04-14T19:06:44.101Z,11.97
2019-04-14T19:09:14.849Z,14.15
2019-04-14T19:12:12.816Z,12.47
2019-04-14T19:14:42.497Z,12.97
2019-04-14T19:17:34.007Z,12.83
2019-04-14T19:20:03.810Z,12.70
2019-04-14T19:22:33.216Z,13.03
2019-04-14T19:25:08.401Z,11.77
2019-04-14T19:27:34.809Z,11.73
2019-04-14T19:30:05.908Z,12.40
2019-04-14T19:32:35.135Z,13.07
2019-04-14T19:35:04.928Z,13.50
2019-04-14T19:37:34.190Z,12.17
2019-04-14T19:40:03.867Z,11.80
2019-04-14T19:42:33.592Z,12.37
2019-04-14T19:45:04.171Z,12.10
2019-04-14T19:47:33.417Z,12.90
2019-04-14T19:50:02.751Z,13.30
2019-04-14T19:52:32.035Z,14.93
2019-04-14T19:55:01.337Z,13.07
2019-04-14T19:57:30.684Z,13.73
2019-04-14T20:00:00.062Z,12.43
2019-04-14T20:02:29.407Z,12.93
2019-04-14T20:05:00.161Z,12.53
2019-04-14T20:07:29.442Z,11.83
2019-04-14T20:09:58.643Z,14.03
2019-04-14T20:12:28.062Z,11.97
2019-04-14T20:14:57.340Z,12.33
2019-04-14T20:17:35.200Z,11.67
2019-04-14T20:20:24.309Z,12.10
2019-04-14T20:23:06.414Z,12.00
2019-04-14T20:26:03.738Z,10.87
2019-04-14T20:28:40.961Z,12.10
2019-04-14T20:31:36.160Z,10.40
2019-04-14T20:34:05.596Z,10.53
2019-04-14T20:36:35.308Z,10.63
2019-04-14T20:39:08.282Z,11.10
2019-04-14T20:41:37.553Z,10.60
2019-04-14T20:44:06.887Z,10.73
2019-04-14T20:46:38.008Z,10.30
2019-04-14T20:49:07.408Z,11.93
2019-04-14T20:51:38.452Z,10.90
2019-04-14T20:54:08.793Z,12.00
2019-04-14T20:56:38.087Z,12.67
2019-04-14T20:59:07.553Z,11.90
2019-04-14T21:01:39.648Z,12.43
2019-04-14T21:04:18.700Z,12.07
2019-04-14T21:07:05.810Z,11.13
2019-04-14T21:10:01.175Z,11.83
2019-04-14T21:12:42.969Z,10.57
2019-04-14T21:15:31.470Z,11.10
2019-04-14T21:18:19.741Z,9.90
2019-04-14T21:21:08.013Z,8.93
2019-04-14T21:23:46.870Z,10.00
2019-04-14T21:26:53.633Z,10.70
2019-04-14T21:29:41.395Z,10.33
2019-04-14T21:32:15.900Z,9.20
2019-04-14T21:35:02.812Z,10.00
2019-04-14T21:37:50.351Z,10.17
2019-04-14T21:40:26.648Z,9.97
2019-04-14T21:42:55.825Z,10.37
2019-04-14T21:45:26.269Z,10.37
2019-04-14T21:47:55.729Z,10.13
2019-04-14T21:50:25.040Z,10.70
2019-04-14T21:52:54.310Z,10.93
2019-04-14T21:55:23.654Z,10.30
2019-04-14T21:58:00.994Z,10.77
2019-04-14T22:01:41.011Z,11.00
2019-04-14T22:04:35.012Z,11.17
2019-04-14T22:07:41.715Z,10.97
2019-04-14T22:10:23.321Z,11.00
2019-04-14T22:12:52.602Z,10.80
2019-04-14T22:15:21.959Z,11.30
2019-04-14T22:17:51.325Z,11.80
2019-04-14T22:20:21.168Z,12.43
2019-04-14T22:22:50.529Z,12.40
2019-04-14T22:25:19.727Z,12.23
2019-04-14T22:27:50.194Z,13.00
2019-04-14T22:30:19.528Z,10.97
2019-04-14T22:32:48.729Z,12.10
2019-04-14T22:35:18.058Z,12.40
2019-04-14T22:37:47.258Z,11.70
2019-04-14T22:40:18.062Z,12.63
2019-04-14T22:42:47.363Z,11.60
2019-04-14T22:45:17.801Z,12.43
2019-04-14T22:47:47.047Z,11.30
2019-04-14T22:50:16.372Z,11.70
2019-04-14T22:52:45.739Z,11.17
2019-04-14T22:55:15.108Z,10.70
2019-04-14T22:57:44.433Z,9.63
2019-04-14T23:00:24.267Z,9.47
2019-04-14T23:03:04.437Z,9.70
2019-04-14T23:05:51.384Z,12.47
2019-04-14T23:08:31.744Z,10.40
2019-04-14T23:11:21.250Z,9.37
2019-04-14T23:14:09.598Z,9.30
2019-04-14T23:17:10.252Z,9.30
2019-04-14T23:19:45.734Z,9.50
2019-04-14T23:22:23.651Z,8.87
2019-04-14T23:24:52.921Z,9.00
2019-04-14T23:27:22.176Z,10.00
2019-04-14T23:29:51.355Z,10.13
2019-04-14T23:32:20.610Z,12.63
2019-04-14T23:34:49.856Z,10.53
2019-04-14T23:37:19.047Z,10.10
2019-04-14T23:39:48.304Z,12.20
2019-04-14T23:42:17.528Z,12.00
2019-04-14T23:44:46.864Z,12.17
2019-04-14T23:47:16.060Z,12.27
2019-04-14T23:49:45.378Z,11.70
2019-04-14T23:52:14.538Z,11.13
2019-04-14T23:54:43.697Z,10.20
2019-04-14T23:57:12.945Z,9.83
2019-04-14T23:59:42.237Z,9.17
